Kt Birdie — 3FUJ7 — position and weather

sailwx.info

Track history (hours):
 
Tides and Currents Weather Stations Pressure Air Temp Water Temp Dewpoint Dewpoint Depression Visibility Wind Speed Wind Dir Waves Ship Positions

Kt Birdie

Last reported at 2018-Mar-21 04:55 UTC. Time now 2018-Apr-24 07:03 UTC.
Position N 01°16' E 103°23'.
Warning: this ship's position is 34 days out of date.

Length 225 m; draft 13.7 m.

Type: Cargo ship. MMSI: 354803000.

Date/timePositionNaut miles runAvg speedWind from/ knotsBaromVisibWave heightAir tempDewpointWater temp
2018-Mar-21 04:55N 01°16' E 103°23'612.1
2018-Mar-21 04:26N 01°14' E 103°28'612.9
2018-Mar-21 03:59N 01°12' E 103°34'612.5
2018-Mar-21 03:30N 01°11' E 103°39'612.2
2018-Mar-21 03:00N 01°09' E 103°45'610.7
2018-Mar-21 02:29N 01°11' E 103°50'5 9.7
2018-Mar-21 02:00N 01°13' E 103°54'5 9.8
2018-Mar-21 01:28N 01°16' E 103°59'3 0.9
2018-Mar-20 22:20N 01°17' E 104°01'0 0.0
2018-Mar-20 21:55N 01°17' E 104°01'0 0.0
2018-Mar-20 21:26N 01°17' E 104°01'0 0.0
2018-Mar-20 11:28N 01°17' E 104°01'3 1.2
2018-Mar-20 08:40N 01°16' E 103°58'1 3.2
2018-Mar-20 08:29N 01°16' E 103°59'2 4.6
2018-Mar-20 07:59N 01°16' E 104°01'  
Track history (hours):
 
Tides and Currents Weather Stations Pressure Air Temp Water Temp Dewpoint Dewpoint Depression Visibility Wind Speed Wind Dir Waves Ship Positions

Kt Birdie

Last reported at 2018-Mar-21 04:55 UTC. Time now 2018-Apr-24 07:03 UTC.
Position N 01°16' E 103°23'.
Warning: this ship's position is 34 days out of date.

Length 225 m; draft 13.7 m.

Type: Cargo ship. MMSI: 354803000.

Date/timePositionNaut miles runAvg speedWind from/ knotsBaromVisibWave heightAir tempDewpointWater temp
2018-Mar-21 04:55N 01°16' E 103°23'612.1
2018-Mar-21 04:26N 01°14' E 103°28'612.9
2018-Mar-21 03:59N 01°12' E 103°34'612.5
2018-Mar-21 03:30N 01°11' E 103°39'612.2
2018-Mar-21 03:00N 01°09' E 103°45'610.7
2018-Mar-21 02:29N 01°11' E 103°50'5 9.7
2018-Mar-21 02:00N 01°13' E 103°54'5 9.8
2018-Mar-21 01:28N 01°16' E 103°59'3 0.9
2018-Mar-20 22:20N 01°17' E 104°01'0 0.0
2018-Mar-20 21:55N 01°17' E 104°01'0 0.0
2018-Mar-20 21:26N 01°17' E 104°01'0 0.0
2018-Mar-20 11:28N 01°17' E 104°01'3 1.2
2018-Mar-20 08:40N 01°16' E 103°58'1 3.2
2018-Mar-20 08:29N 01°16' E 103°59'2 4.6
2018-Mar-20 07:59N 01°16' E 104°01'  

Dump ship's entire track history